Time;durP1;ratioP1;P1;durP2;ratioP2;P2;SDS_P1;SDS_P2;PMS_P1;PMS_P2;Temp;Humidity;BMP_temperature;BMP_pressure;BME280_temperature;BME280_humidity;BME280_pressure;Samples;Min_cycle;Max_cycle;Signal;HPM_P1;HPM_P2
2023/02/19 00:04:42;;;;;;;7.65;5.70;;;;;;;;;;10330213;28;20068;-62
2023/02/19 00:09:42;;;;;;;7.40;5.25;;;;;;;;;;10328980;28;20087;-62
2023/02/19 00:14:40;;;;;;;6.53;5.53;;;;;;;;;;10328585;28;20071;-62
2023/02/19 00:19:38;;;;;;;6.40;4.53;;;;;;;;;;10330301;28;20496;-61
2023/02/19 00:24:36;;;;;;;5.30;4.70;;;;;;;;;;10331994;28;20072;-61
2023/02/19 00:29:36;;;;;;;7.57;5.63;;;;;;;;;;10332026;28;20090;-61
2023/02/19 00:34:34;;;;;;;7.05;5.28;;;;;;;;;;10329811;28;20068;-61
2023/02/19 00:39:32;;;;;;;7.97;5.63;;;;;;;;;;10333420;28;20075;-62
2023/02/19 00:44:30;;;;;;;5.95;4.97;;;;;;;;;;10319811;28;20524;-61
2023/02/19 00:49:30;;;;;;;6.50;5.00;;;;;;;;;;10315459;28;20040;-61
2023/02/19 00:54:30;;;;;;;6.90;5.55;;;;;;;;;;10312691;28;20079;-61
2023/02/19 00:59:28;;;;;;;8.23;5.20;;;;;;;;;;10325080;28;20549;-61
2023/02/19 01:04:27;;;;;;;9.45;5.50;;;;;;;;;;10311820;28;20063;-61
2023/02/19 01:09:27;;;;;;;7.53;5.07;;;;;;;;;;10311488;28;20514;-61
2023/02/19 01:14:25;;;;;;;6.47;4.88;;;;;;;;;;10328820;28;20060;-61
2023/02/19 01:19:23;;;;;;;6.13;5.53;;;;;;;;;;10330306;28;20071;-61
2023/02/19 01:24:21;;;;;;;6.78;5.00;;;;;;;;;;10329510;28;20071;-61
2023/02/19 01:29:21;;;;;;;6.93;5.50;;;;;;;;;;10329352;28;20060;-61
2023/02/19 01:34:19;;;;;;;10.55;6.18;;;;;;;;;;10318409;28;20139;-61
2023/02/19 01:39:17;;;;;;;11.25;7.30;;;;;;;;;;10317587;28;20068;-61
2023/02/19 01:44:34;;;;;;;15.00;8.13;;;;;;;;;;10338344;28;20294;-62
2023/02/19 01:49:35;;;;;;;8.10;6.18;;;;;;;;;;10338324;28;20064;-62
2023/02/19 01:54:36;;;;;;;9.82;6.57;;;;;;;;;;10340108;28;20072;-62
2023/02/19 01:59:34;;;;;;;6.57;5.95;;;;;;;;;;10328632;28;20115;-61
2023/02/19 02:04:34;;;;;;;7.72;5.97;;;;;;;;;;10336169;28;20064;-62
2023/02/19 02:14:48;;;;;;;8.20;6.60;;;;;;;;;;10336393;28;20068;-62
2023/02/19 02:20:02;;;;;;;6.47;5.78;;;;;;;;;;10336774;28;20076;-62
2023/02/19 02:25:18;;;;;;;7.18;5.95;;;;;;;;;;10335551;28;20083;-61
2023/02/19 02:30:22;;;;;;;12.18;6.40;;;;;;;;;;10317216;28;20345;-61
2023/02/19 02:35:23;;;;;;;7.60;6.47;;;;;;;;;;10331204;28;20075;-61
2023/02/19 02:40:21;;;;;;;9.73;6.32;;;;;;;;;;10312391;28;20040;-61
2023/02/19 02:45:34;;;;;;;9.95;7.50;;;;;;;;;;10333837;28;20068;-61
2023/02/19 02:50:59;;;;;;;8.55;6.30;;;;;;;;;;10322443;28;20520;-61
2023/02/19 02:56:01;;;;;;;11.90;7.47;;;;;;;;;;10317025;28;20082;-61
2023/02/19 03:06:22;;;;;;;8.23;6.82;;;;;;;;;;10315934;28;20083;-61
2023/02/19 03:21:55;;;;;;;9.60;7.53;;;;;;;;;;10332327;28;20560;-61
2023/02/19 03:26:55;;;;;;;11.85;8.45;;;;;;;;;;10333178;28;20090;-61
2023/02/19 03:31:56;;;;;;;9.32;6.95;;;;;;;;;;10317161;28;20490;-62
2023/02/19 03:37:01;;;;;;;15.00;8.77;;;;;;;;;;10331045;28;20082;-62
2023/02/19 03:42:06;;;;;;;8.00;6.85;;;;;;;;;;10332248;28;20068;-60
2023/02/19 03:47:10;;;;;;;11.75;7.97;;;;;;;;;;10316452;28;20189;-61
2023/02/19 03:52:11;;;;;;;9.30;7.55;;;;;;;;;;10312884;28;20056;-62
2023/02/19 03:57:14;;;;;;;11.30;9.32;;;;;;;;;;10315377;28;20079;-62
2023/02/19 04:02:16;;;;;;;14.48;9.32;;;;;;;;;;10320967;28;20482;-62
2023/02/19 04:07:15;;;;;;;16.25;11.48;;;;;;;;;;10332447;28;20064;-61
2023/02/19 04:12:14;;;;;;;11.85;9.57;;;;;;;;;;10315237;28;20082;-62
2023/02/19 04:17:18;;;;;;;10.93;9.23;;;;;;;;;;10321081;28;20079;-62
2023/02/19 04:22:17;;;;;;;14.13;9.32;;;;;;;;;;10326038;28;20083;-62
2023/02/19 04:27:15;;;;;;;10.20;8.52;;;;;;;;;;10331850;28;20071;-62
2023/02/19 04:32:13;;;;;;;11.00;8.38;;;;;;;;;;10331059;28;20079;-62
2023/02/19 04:37:13;;;;;;;10.65;8.52;;;;;;;;;;10330348;28;20068;-62
2023/02/19 04:42:11;;;;;;;10.52;8.52;;;;;;;;;;10330434;28;20126;-62
2023/02/19 04:47:09;;;;;;;12.88;11.05;;;;;;;;;;10331195;28;20482;-62
2023/02/19 04:52:07;;;;;;;11.82;9.73;;;;;;;;;;10328455;28;20064;-62
2023/02/19 04:57:07;;;;;;;12.55;9.98;;;;;;;;;;10331571;28;20445;-62
2023/02/19 05:02:05;;;;;;;10.02;9.02;;;;;;;;;;10330580;28;20650;-62
2023/02/19 05:07:03;;;;;;;12.85;10.13;;;;;;;;;;10331236;28;20122;-62
2023/02/19 05:12:02;;;;;;;12.95;10.68;;;;;;;;;;10332754;28;20509;-62
2023/02/19 05:17:02;;;;;;;14.18;10.77;;;;;;;;;;10339123;28;20056;-62
2023/02/19 05:22:00;;;;;;;12.77;10.40;;;;;;;;;;10334239;28;20087;-62
2023/02/19 05:26:59;;;;;;;17.65;10.23;;;;;;;;;;10336719;28;20079;-62
2023/02/19 05:31:57;;;;;;;15.95;10.23;;;;;;;;;;10338781;28;20075;-61
2023/02/19 05:36:56;;;;;;;23.38;14.55;;;;;;;;;;10337447;28;20075;-62
2023/02/19 05:41:54;;;;;;;12.27;10.52;;;;;;;;;;10332606;28;20123;-61
2023/02/19 05:46:53;;;;;;;15.45;11.65;;;;;;;;;;10337964;28;20062;-62
2023/02/19 05:51:51;;;;;;;15.68;10.57;;;;;;;;;;10336702;28;20072;-62
2023/02/19 05:56:50;;;;;;;18.48;13.00;;;;;;;;;;10336543;28;20072;-62
2023/02/19 06:01:49;;;;;;;14.65;11.98;;;;;;;;;;10334459;28;20134;-61
2023/02/19 06:06:47;;;;;;;14.13;10.95;;;;;;;;;;10335642;28;20071;-62
2023/02/19 06:11:46;;;;;;;15.07;12.15;;;;;;;;;;10335054;28;20071;-59
2023/02/19 06:16:45;;;;;;;15.25;11.88;;;;;;;;;;10333690;28;20510;-59
2023/02/19 06:21:45;;;;;;;20.02;13.02;;;;;;;;;;10333878;28;20481;-61
2023/02/19 06:26:43;;;;;;;16.63;12.80;;;;;;;;;;10331299;28;20067;-60
2023/02/19 06:31:41;;;;;;;17.95;12.93;;;;;;;;;;10333930;28;20083;-60
2023/02/19 06:36:41;;;;;;;15.43;11.57;;;;;;;;;;10333706;28;20082;-61
2023/02/19 06:41:39;;;;;;;15.00;12.77;;;;;;;;;;10334846;28;20079;-60
2023/02/19 06:46:37;;;;;;;21.17;17.25;;;;;;;;;;10314918;28;20044;-60
2023/02/19 06:51:36;;;;;;;17.63;13.68;;;;;;;;;;10334881;28;20084;-61
2023/02/19 06:56:36;;;;;;;14.45;10.70;;;;;;;;;;10331090;28;20102;-61
2023/02/19 07:01:35;;;;;;;16.42;14.18;;;;;;;;;;10333341;28;20078;-60
2023/02/19 07:06:33;;;;;;;29.85;18.75;;;;;;;;;;10331115;28;20068;-60
2023/02/19 07:11:33;;;;;;;18.60;13.68;;;;;;;;;;10342577;28;20064;-62
2023/02/19 07:16:33;;;;;;;20.70;15.13;;;;;;;;;;10348203;28;20503;-59
2023/02/19 07:21:36;;;;;;;33.50;21.98;;;;;;;;;;10340144;28;20076;-60
2023/02/19 07:26:35;;;;;;;26.98;15.73;;;;;;;;;;10334327;28;20564;-59
2023/02/19 07:31:34;;;;;;;23.08;17.98;;;;;;;;;;10330094;28;20608;-61
2023/02/19 07:36:32;;;;;;;22.67;16.73;;;;;;;;;;10326246;28;20077;-61
2023/02/19 07:41:31;;;;;;;24.45;17.00;;;;;;;;;;10329509;28;20079;-62
2023/02/19 07:46:29;;;;;;;17.02;15.07;;;;;;;;;;10324926;28;20075;-62
2023/02/19 07:51:28;;;;;;;17.90;15.20;;;;;;;;;;10328888;28;20075;-61
2023/02/19 07:56:28;;;;;;;19.38;15.90;;;;;;;;;;10331356;28;20060;-62
2023/02/19 08:06:40;;;;;;;18.52;16.65;;;;;;;;;;10287173;28;20080;-62
2023/02/19 08:17:00;;;;;;;23.13;13.95;;;;;;;;;;10266109;28;20080;-61
2023/02/19 08:21:59;;;;;;;26.65;21.52;;;;;;;;;;10292060;28;20075;-61
2023/02/19 08:26:57;;;;;;;20.10;15.82;;;;;;;;;;10290007;28;20561;-61
2023/02/19 08:31:56;;;;;;;30.05;24.05;;;;;;;;;;10291029;28;20079;-62
2023/02/19 08:36:54;;;;;;;26.23;18.90;;;;;;;;;;10288594;28;20095;-61
2023/02/19 08:41:53;;;;;;;18.38;15.38;;;;;;;;;;10288869;28;20075;-62
2023/02/19 08:46:51;;;;;;;19.90;17.27;;;;;;;;;;10283976;28;20073;-62
2023/02/19 08:51:50;;;;;;;17.60;15.75;;;;;;;;;;10290750;28;20065;-62
2023/02/19 08:56:48;;;;;;;17.40;15.60;;;;;;;;;;10289061;28;20092;-62
2023/02/19 09:01:47;;;;;;;18.55;15.88;;;;;;;;;;10292647;28;20068;-62
2023/02/19 09:06:45;;;;;;;17.23;13.88;;;;;;;;;;10329307;28;20076;-62
2023/02/19 09:11:44;;;;;;;16.88;14.32;;;;;;;;;;10328486;28;20067;-62
2023/02/19 09:16:44;;;;;;;16.33;14.55;;;;;;;;;;10329088;28;20076;-62
2023/02/19 09:21:44;;;;;;;17.52;15.10;;;;;;;;;;10330051;28;20146;-62
2023/02/19 09:26:42;;;;;;;18.30;13.65;;;;;;;;;;10328744;28;20077;-62
2023/02/19 09:31:40;;;;;;;15.52;13.27;;;;;;;;;;10328935;28;20082;-62
2023/02/19 09:36:39;;;;;;;13.73;12.18;;;;;;;;;;10311374;28;20508;-62
2023/02/19 09:41:44;;;;;;;15.30;13.32;;;;;;;;;;10350137;28;20688;-62
2023/02/19 09:46:42;;;;;;;13.95;12.50;;;;;;;;;;10346545;28;20068;-61
2023/02/19 09:51:43;;;;;;;14.75;12.65;;;;;;;;;;10347816;28;20067;-61
2023/02/19 09:56:43;;;;;;;19.45;13.82;;;;;;;;;;10335698;28;20536;-61
2023/02/19 10:01:42;;;;;;;14.95;12.32;;;;;;;;;;10338936;28;20067;-62
2023/02/19 10:06:40;;;;;;;14.85;12.45;;;;;;;;;;10358836;28;20074;-61
2023/02/19 10:11:38;;;;;;;16.55;12.80;;;;;;;;;;10351334;28;20067;-61
2023/02/19 10:16:40;;;;;;;14.85;11.20;;;;;;;;;;10340669;28;20462;-60
2023/02/19 10:21:39;;;;;;;11.30;10.20;;;;;;;;;;10349192;28;20063;-59
2023/02/19 10:26:37;;;;;;;15.20;10.27;;;;;;;;;;10350609;28;20080;-61
2023/02/19 10:31:35;;;;;;;13.20;9.70;;;;;;;;;;10328471;28;20074;-62
2023/02/19 10:36:36;;;;;;;12.68;9.85;;;;;;;;;;10332836;28;20071;-62
2023/02/19 10:41:39;;;;;;;10.65;9.20;;;;;;;;;;10332180;28;20075;-61
2023/02/19 10:46:43;;;;;;;16.85;11.60;;;;;;;;;;10332567;28;20480;-62
2023/02/19 10:51:42;;;;;;;12.05;10.70;;;;;;;;;;10329794;28;20098;-60
2023/02/19 10:56:41;;;;;;;11.30;8.90;;;;;;;;;;10335360;28;20076;-62
2023/02/19 11:01:39;;;;;;;10.38;8.57;;;;;;;;;;10316471;28;20469;-61
2023/02/19 11:06:37;;;;;;;12.60;9.40;;;;;;;;;;10334976;28;20065;-61
2023/02/19 11:11:39;;;;;;;13.10;8.88;;;;;;;;;;10334807;28;20068;-62
2023/02/19 11:16:42;;;;;;;9.98;8.93;;;;;;;;;;10333090;28;20071;-61
2023/02/19 11:21:40;;;;;;;12.50;8.43;;;;;;;;;;10333085;28;20472;-61
2023/02/19 11:26:39;;;;;;;10.85;7.88;;;;;;;;;;10334844;28;20072;-62
2023/02/19 11:31:37;;;;;;;9.05;7.72;;;;;;;;;;10333310;28;20072;-62
2023/02/19 11:36:37;;;;;;;9.68;8.68;;;;;;;;;;10332538;28;20106;-62
2023/02/19 11:41:51;;;;;;;10.07;8.27;;;;;;;;;;10333290;28;20457;-62
2023/02/19 11:46:57;;;;;;;9.25;8.02;;;;;;;;;;10332530;28;20442;-62
2023/02/19 11:52:01;;;;;;;15.40;8.18;;;;;;;;;;10331945;28;20068;-62
2023/02/19 11:57:07;;;;;;;9.05;7.57;;;;;;;;;;10332151;28;20079;-61
2023/02/19 12:02:14;;;;;;;8.07;6.82;;;;;;;;;;10332727;28;20087;-61
2023/02/19 12:07:17;;;;;;;8.65;6.95;;;;;;;;;;10332577;28;20076;-62
2023/02/19 12:12:25;;;;;;;7.60;6.50;;;;;;;;;;10331532;28;20086;-61
2023/02/19 12:17:34;;;;;;;7.43;6.65;;;;;;;;;;10332671;28;20086;-62
2023/02/19 12:22:33;;;;;;;8.73;7.18;;;;;;;;;;10330213;28;20474;-61
2023/02/19 12:27:40;;;;;;;9.23;6.90;;;;;;;;;;10331967;28;20117;-62
2023/02/19 12:32:46;;;;;;;12.18;7.70;;;;;;;;;;10331677;28;20094;-62
2023/02/19 12:37:47;;;;;;;9.02;6.53;;;;;;;;;;10330755;28;20082;-62
2023/02/19 12:42:52;;;;;;;9.85;6.63;;;;;;;;;;10331253;28;20067;-62
2023/02/19 12:47:55;;;;;;;10.23;5.32;;;;;;;;;;10330454;28;20091;-61
2023/02/19 12:52:55;;;;;;;8.60;7.55;;;;;;;;;;10332747;28;20442;-61
2023/02/19 12:57:55;;;;;;;10.63;7.68;;;;;;;;;;10330829;28;20377;-61
2023/02/19 13:02:56;;;;;;;7.50;5.32;;;;;;;;;;10329203;28;20071;-61
2023/02/19 13:07:56;;;;;;;5.38;4.88;;;;;;;;;;10330084;28;20087;-61
2023/02/19 13:12:58;;;;;;;9.00;5.55;;;;;;;;;;10329608;28;20068;-61
2023/02/19 13:17:58;;;;;;;10.70;4.53;;;;;;;;;;10330759;28;20065;-61
2023/02/19 13:28:25;;;;;;;6.72;6.10;;;;;;;;;;10330912;28;20068;-61
2023/02/19 13:33:48;;;;;;;8.40;5.72;;;;;;;;;;10331002;28;20429;-61
2023/02/19 13:38:48;;;;;;;6.10;5.38;;;;;;;;;;10338234;28;20079;-61
2023/02/19 13:43:54;;;;;;;9.75;8.75;;;;;;;;;;10334134;28;20513;-61
2023/02/19 13:49:07;;;;;;;7.95;3.60;;;;;;;;;;10338479;28;20068;-61
2023/02/19 13:54:14;;;;;;;7.40;4.28;;;;;;;;;;10336218;28;20068;-61
2023/02/19 13:59:30;;;;;;;6.50;4.28;;;;;;;;;;10337565;28;20072;-62
2023/02/19 14:04:41;;;;;;;4.78;4.20;;;;;;;;;;10337438;28;20079;-62
2023/02/19 14:09:44;;;;;;;6.25;5.57;;;;;;;;;;10336846;28;20080;-62
2023/02/19 14:14:43;;;;;;;5.85;5.05;;;;;;;;;;10334255;28;20190;-61
2023/02/19 14:19:47;;;;;;;8.18;6.97;;;;;;;;;;10336971;28;20076;-62
2023/02/19 14:24:46;;;;;;;6.80;5.75;;;;;;;;;;10333237;28;20071;-62
2023/02/19 14:29:45;;;;;;;6.50;4.03;;;;;;;;;;10336176;28;20060;-62
2023/02/19 14:34:44;;;;;;;5.53;4.13;;;;;;;;;;10334664;28;20071;-62
2023/02/19 14:39:44;;;;;;;7.25;5.15;;;;;;;;;;10336232;28;20080;-61
2023/02/19 14:44:50;;;;;;;6.85;4.53;;;;;;;;;;10334428;28;20086;-61
2023/02/19 14:49:49;;;;;;;6.25;5.75;;;;;;;;;;10334847;28;20076;-62
2023/02/19 14:54:51;;;;;;;4.65;4.18;;;;;;;;;;10335671;28;20059;-60
2023/02/19 14:59:54;;;;;;;4.43;4.05;;;;;;;;;;10334183;28;20071;-61
2023/02/19 15:04:52;;;;;;;8.98;8.07;;;;;;;;;;10333879;28;20076;-61
2023/02/19 15:09:55;;;;;;;8.18;6.53;;;;;;;;;;10324707;28;20403;-61
2023/02/19 15:14:56;;;;;;;6.50;5.85;;;;;;;;;;10333948;28;20550;-62
2023/02/19 15:19:54;;;;;;;7.80;5.53;;;;;;;;;;10333889;28;20102;-60
2023/02/19 15:24:54;;;;;;;6.78;6.18;;;;;;;;;;10333378;28;20064;-60
2023/02/19 15:29:53;;;;;;;8.40;7.35;;;;;;;;;;10333950;28;20466;-61
2023/02/19 15:34:55;;;;;;;31.02;24.50;;;;;;;;;;10333272;28;20048;-60
2023/02/19 15:39:56;;;;;;;9.68;8.35;;;;;;;;;;10334663;28;20091;-61
2023/02/19 15:44:56;;;;;;;10.60;9.50;;;;;;;;;;10332534;28;20083;-62
2023/02/19 15:49:57;;;;;;;8.82;6.28;;;;;;;;;;10333759;28;20080;-61
2023/02/19 15:54:58;;;;;;;12.23;10.93;;;;;;;;;;10332991;28;20060;-61
2023/02/19 15:59:58;;;;;;;16.25;11.95;;;;;;;;;;10331911;28;20079;-61
2023/02/19 16:04:57;;;;;;;33.67;17.00;;;;;;;;;;10330585;28;20087;-61
2023/02/19 16:10:07;;;;;;;27.17;21.42;;;;;;;;;;10332772;28;20064;-61
2023/02/19 16:15:12;;;;;;;65.32;50.38;;;;;;;;;;10331831;28;20076;-61
2023/02/19 16:20:16;;;;;;;22.45;18.15;;;;;;;;;;10331027;28;20087;-61
2023/02/19 16:25:26;;;;;;;26.25;19.17;;;;;;;;;;10330477;28;20055;-61
2023/02/19 16:30:29;;;;;;;14.07;11.95;;;;;;;;;;10331413;28;20048;-61
2023/02/19 16:35:38;;;;;;;11.07;7.75;;;;;;;;;;10325670;28;20043;-61
2023/02/19 16:40:54;;;;;;;9.82;8.75;;;;;;;;;;10331283;28;20075;-62
2023/02/19 16:45:53;;;;;;;13.32;11.90;;;;;;;;;;10328117;28;20075;-62
2023/02/19 16:50:52;;;;;;;10.88;9.70;;;;;;;;;;10330475;28;20064;-61
2023/02/19 16:55:50;;;;;;;21.13;18.52;;;;;;;;;;10314391;28;20076;-61
2023/02/19 17:00:48;;;;;;;13.07;8.23;;;;;;;;;;10328956;28;20076;-61
2023/02/19 17:05:49;;;;;;;29.75;21.83;;;;;;;;;;10331748;28;20543;-61
2023/02/19 17:10:47;;;;;;;50.85;32.13;;;;;;;;;;10343076;28;20072;-61
2023/02/19 17:15:45;;;;;;;45.08;30.85;;;;;;;;;;10343874;28;20095;-61
2023/02/19 17:20:44;;;;;;;126.82;78.88;;;;;;;;;;10344077;28;20080;-61
2023/02/19 17:25:44;;;;;;;70.93;53.90;;;;;;;;;;10343119;28;20104;-62
2023/02/19 17:30:42;;;;;;;31.15;25.20;;;;;;;;;;10342640;28;20067;-61
2023/02/19 17:35:41;;;;;;;14.18;11.77;;;;;;;;;;10343334;28;20083;-61
2023/02/19 17:40:39;;;;;;;19.17;15.38;;;;;;;;;;10343708;28;20087;-61
2023/02/19 17:45:39;;;;;;;14.07;11.70;;;;;;;;;;10341709;28;20454;-61
2023/02/19 17:50:37;;;;;;;50.67;40.20;;;;;;;;;;10343453;28;20044;-61
2023/02/19 17:55:35;;;;;;;12.20;10.93;;;;;;;;;;10343021;28;20086;-61
2023/02/19 18:00:35;;;;;;;29.98;26.25;;;;;;;;;;10342451;28;20083;-61
2023/02/19 18:05:34;;;;;;;23.00;19.63;;;;;;;;;;10342699;28;20091;-61
2023/02/19 18:10:32;;;;;;;13.93;12.43;;;;;;;;;;10342655;28;20068;-61
2023/02/19 18:15:30;;;;;;;11.05;9.88;;;;;;;;;;10344156;28;20060;-61
2023/02/19 18:20:30;;;;;;;13.48;11.70;;;;;;;;;;10338971;28;20083;-62
2023/02/19 18:25:29;;;;;;;15.57;10.95;;;;;;;;;;10333599;28;20068;-62
2023/02/19 18:30:28;;;;;;;65.93;40.72;;;;;;;;;;10336528;28;20059;-62
2023/02/19 18:35:26;;;;;;;20.92;17.80;;;;;;;;;;10334761;28;20556;-60
2023/02/19 18:40:25;;;;;;;25.50;19.00;;;;;;;;;;10336012;28;20068;-60
2023/02/19 18:45:26;;;;;;;32.85;24.02;;;;;;;;;;10335461;28;20075;-61
2023/02/19 18:50:24;;;;;;;21.17;16.88;;;;;;;;;;10334415;28;20060;-61
2023/02/19 18:55:22;;;;;;;19.45;16.67;;;;;;;;;;10335603;28;20067;-62
2023/02/19 19:00:24;;;;;;;20.88;16.83;;;;;;;;;;10323251;28;20083;-62
2023/02/19 19:05:24;;;;;;;18.13;16.00;;;;;;;;;;10334783;28;20486;-62
2023/02/19 19:10:22;;;;;;;13.32;11.65;;;;;;;;;;10334253;28;20068;-61
2023/02/19 19:15:21;;;;;;;19.42;12.18;;;;;;;;;;10334101;28;20082;-61
2023/02/19 19:20:19;;;;;;;16.52;12.60;;;;;;;;;;10333855;28;20477;-60
2023/02/19 19:25:19;;;;;;;9.95;8.52;;;;;;;;;;10340625;28;20087;-61
2023/02/19 19:30:18;;;;;;;10.82;8.60;;;;;;;;;;10338635;28;20064;-60
2023/02/19 19:35:17;;;;;;;11.57;9.25;;;;;;;;;;10341266;28;20560;-59
2023/02/19 19:40:15;;;;;;;14.75;12.27;;;;;;;;;;10324546;28;20090;-62
2023/02/19 19:45:15;;;;;;;22.02;16.77;;;;;;;;;;10331456;28;20060;-62
2023/02/19 19:50:13;;;;;;;14.57;11.15;;;;;;;;;;10333164;28;20078;-61
2023/02/19 19:55:11;;;;;;;32.10;22.90;;;;;;;;;;10346042;28;20077;-60
2023/02/19 20:00:12;;;;;;;18.38;14.30;;;;;;;;;;10339894;28;20063;-60
2023/02/19 20:05:12;;;;;;;49.28;33.35;;;;;;;;;;10330558;28;20076;-60
2023/02/19 20:10:11;;;;;;;11.85;9.88;;;;;;;;;;10343279;28;20482;-59
2023/02/19 20:15:10;;;;;;;17.40;13.40;;;;;;;;;;10336843;28;20087;-61
2023/02/19 20:20:09;;;;;;;18.70;15.13;;;;;;;;;;10311341;28;20086;-60
2023/02/19 20:25:08;;;;;;;13.00;11.07;;;;;;;;;;10341356;28;20087;-61
2023/02/19 20:30:07;;;;;;;25.05;18.83;;;;;;;;;;10332622;28;20501;-61
2023/02/19 20:35:08;;;;;;;61.58;40.47;;;;;;;;;;10328860;28;20068;-59
2023/02/19 20:40:08;;;;;;;24.42;21.10;;;;;;;;;;10328475;28;20446;-62
2023/02/19 20:45:07;;;;;;;19.35;16.40;;;;;;;;;;10344712;28;20075;-61
2023/02/19 20:50:06;;;;;;;16.73;13.50;;;;;;;;;;10333704;28;20069;-60
2023/02/19 20:55:04;;;;;;;18.20;14.38;;;;;;;;;;10329521;28;20537;-61
2023/02/19 21:00:04;;;;;;;26.25;17.98;;;;;;;;;;10334866;28;20528;-60
2023/02/19 21:05:03;;;;;;;24.45;17.67;;;;;;;;;;10332843;28;20555;-61
2023/02/19 21:10:02;;;;;;;13.80;10.15;;;;;;;;;;10319098;28;20099;-60
2023/02/19 21:15:00;;;;;;;18.60;13.80;;;;;;;;;;10309099;28;20091;-61
2023/02/19 21:19:59;;;;;;;24.60;17.55;;;;;;;;;;10331029;28;20442;-61
2023/02/19 21:24:58;;;;;;;30.38;20.27;;;;;;;;;;10332623;28;20072;-61
2023/02/19 21:29:56;;;;;;;15.45;13.52;;;;;;;;;;10339598;28;20067;-60
2023/02/19 21:34:54;;;;;;;16.63;13.35;;;;;;;;;;10345149;28;20075;-61
2023/02/19 21:39:54;;;;;;;12.30;11.00;;;;;;;;;;10338426;28;20064;-61
2023/02/19 21:44:52;;;;;;;22.45;18.83;;;;;;;;;;10342522;28;20075;-61
2023/02/19 21:49:50;;;;;;;15.93;14.27;;;;;;;;;;10345309;28;20060;-61
2023/02/19 21:54:48;;;;;;;14.82;11.63;;;;;;;;;;10328931;28;20052;-61
2023/02/19 21:59:48;;;;;;;14.40;10.85;;;;;;;;;;10351524;28;20446;-61
2023/02/19 22:04:46;;;;;;;12.00;10.70;;;;;;;;;;10346419;28;20513;-61
2023/02/19 22:09:45;;;;;;;12.85;10.38;;;;;;;;;;10344815;28;20501;-60
2023/02/19 22:14:43;;;;;;;12.18;10.32;;;;;;;;;;10341376;28;20059;-61
2023/02/19 22:19:42;;;;;;;13.50;10.15;;;;;;;;;;10340426;28;20068;-61
2023/02/19 22:24:40;;;;;;;10.98;9.80;;;;;;;;;;10336137;28;20083;-61
2023/02/19 22:29:39;;;;;;;15.38;11.70;;;;;;;;;;10333558;28;20076;-60
2023/02/19 22:34:38;;;;;;;11.30;10.05;;;;;;;;;;10338206;28;20060;-61
2023/02/19 22:39:37;;;;;;;15.30;9.75;;;;;;;;;;10337722;28;20068;-61
2023/02/19 22:44:35;;;;;;;13.15;10.73;;;;;;;;;;10335958;28;20060;-61
2023/02/19 22:49:33;;;;;;;12.18;10.27;;;;;;;;;;10342166;28;20068;-60
2023/02/19 22:54:32;;;;;;;11.90;10.25;;;;;;;;;;10339318;28;20544;-60
2023/02/19 22:59:31;;;;;;;10.88;9.88;;;;;;;;;;10335644;28;20098;-60
2023/02/19 23:04:30;;;;;;;10.90;9.35;;;;;;;;;;10314860;28;20084;-60
2023/02/19 23:09:29;;;;;;;13.80;10.30;;;;;;;;;;10315527;28;20093;-61
2023/02/19 23:14:27;;;;;;;10.05;9.00;;;;;;;;;;10334837;28;20064;-60
2023/02/19 23:19:27;;;;;;;13.95;9.82;;;;;;;;;;10336707;28;20454;-61
2023/02/19 23:24:25;;;;;;;12.10;9.80;;;;;;;;;;10331920;28;20079;-60
2023/02/19 23:29:24;;;;;;;10.60;9.50;;;;;;;;;;10333329;28;20067;-62
2023/02/19 23:34:23;;;;;;;13.40;9.95;;;;;;;;;;10334257;28;20068;-61
2023/02/19 23:39:22;;;;;;;11.70;9.85;;;;;;;;;;10333063;28;20663;-62
2023/02/19 23:44:21;;;;;;;12.02;10.63;;;;;;;;;;10330235;28;20070;-62
2023/02/19 23:49:19;;;;;;;13.88;10.63;;;;;;;;;;10333767;28;20072;-61
2023/02/19 23:54:17;;;;;;;18.08;11.13;;;;;;;;;;10332821;28;20208;-61
2023/02/19 23:59:17;;;;;;;14.38;10.75;;;;;;;;;;10331917;28;20537;-62
